sensor_id;sensor_type;location;lat;lon;timestamp;P1;durP1;ratioP1;P2;durP2;ratioP2
7669;SDS011;3877;42.562;27.636;2022-12-19T00:02:00;19.23;;;10.83;;
7669;SDS011;3877;42.562;27.636;2022-12-19T00:04:27;18.10;;;10.40;;
7669;SDS011;3877;42.562;27.636;2022-12-19T00:06:56;13.13;;;7.27;;
7669;SDS011;3877;42.562;27.636;2022-12-19T00:09:24;18.43;;;10.43;;
7669;SDS011;3877;42.562;27.636;2022-12-19T00:11:50;18.70;;;10.73;;
7669;SDS011;3877;42.562;27.636;2022-12-19T00:14:17;17.30;;;10.50;;
7669;SDS011;3877;42.562;27.636;2022-12-19T00:16:44;18.07;;;10.27;;
7669;SDS011;3877;42.562;27.636;2022-12-19T00:19:11;21.10;;;10.07;;
7669;SDS011;3877;42.562;27.636;2022-12-19T00:21:38;17.63;;;9.43;;
7669;SDS011;3877;42.562;27.636;2022-12-19T00:24:07;20.63;;;11.03;;
7669;SDS011;3877;42.562;27.636;2022-12-19T00:26:34;17.43;;;10.33;;
7669;SDS011;3877;42.562;27.636;2022-12-19T00:29:04;18.97;;;10.40;;
7669;SDS011;3877;42.562;27.636;2022-12-19T00:31:32;17.70;;;10.13;;
7669;SDS011;3877;42.562;27.636;2022-12-19T00:33:59;19.80;;;10.47;;
7669;SDS011;3877;42.562;27.636;2022-12-19T00:36:28;19.77;;;10.50;;
7669;SDS011;3877;42.562;27.636;2022-12-19T00:38:55;18.40;;;11.47;;
7669;SDS011;3877;42.562;27.636;2022-12-19T00:41:26;16.20;;;10.13;;
7669;SDS011;3877;42.562;27.636;2022-12-19T00:43:53;16.73;;;10.33;;
7669;SDS011;3877;42.562;27.636;2022-12-19T00:46:20;24.27;;;10.87;;
7669;SDS011;3877;42.562;27.636;2022-12-19T00:48:47;20.27;;;10.70;;
7669;SDS011;3877;42.562;27.636;2022-12-19T00:51:15;20.13;;;10.87;;
7669;SDS011;3877;42.562;27.636;2022-12-19T00:53:42;21.40;;;11.30;;
7669;SDS011;3877;42.562;27.636;2022-12-19T00:56:09;18.20;;;9.97;;
7669;SDS011;3877;42.562;27.636;2022-12-19T00:58:38;19.27;;;10.40;;
7669;SDS011;3877;42.562;27.636;2022-12-19T01:01:05;19.17;;;9.77;;
7669;SDS011;3877;42.562;27.636;2022-12-19T01:03:32;19.63;;;10.63;;
7669;SDS011;3877;42.562;27.636;2022-12-19T01:06:00;22.43;;;10.47;;
7669;SDS011;3877;42.562;27.636;2022-12-19T01:08:26;20.23;;;11.20;;
7669;SDS011;3877;42.562;27.636;2022-12-19T01:10:53;20.97;;;10.97;;
7669;SDS011;3877;42.562;27.636;2022-12-19T01:13:21;21.37;;;11.70;;
7669;SDS011;3877;42.562;27.636;2022-12-19T01:15:48;22.03;;;11.90;;
7669;SDS011;3877;42.562;27.636;2022-12-19T01:18:15;22.23;;;10.70;;
7669;SDS011;3877;42.562;27.636;2022-12-19T01:20:43;19.03;;;9.97;;
7669;SDS011;3877;42.562;27.636;2022-12-19T01:23:12;27.50;;;12.30;;
7669;SDS011;3877;42.562;27.636;2022-12-19T01:25:39;19.93;;;10.37;;
7669;SDS011;3877;42.562;27.636;2022-12-19T01:28:06;21.00;;;11.53;;
7669;SDS011;3877;42.562;27.636;2022-12-19T01:30:33;22.97;;;10.03;;
7669;SDS011;3877;42.562;27.636;2022-12-19T01:33:01;24.53;;;11.90;;
7669;SDS011;3877;42.562;27.636;2022-12-19T01:35:28;21.33;;;11.13;;
7669;SDS011;3877;42.562;27.636;2022-12-19T01:37:55;21.53;;;10.67;;
7669;SDS011;3877;42.562;27.636;2022-12-19T01:40:22;22.43;;;12.33;;
7669;SDS011;3877;42.562;27.636;2022-12-19T01:42:49;22.30;;;12.00;;
7669;SDS011;3877;42.562;27.636;2022-12-19T01:45:22;21.87;;;11.17;;
7669;SDS011;3877;42.562;27.636;2022-12-19T01:47:50;28.90;;;12.33;;
7669;SDS011;3877;42.562;27.636;2022-12-19T01:50:21;24.53;;;12.17;;
7669;SDS011;3877;42.562;27.636;2022-12-19T01:52:49;24.83;;;12.37;;
7669;SDS011;3877;42.562;27.636;2022-12-19T01:55:17;21.57;;;11.10;;
7669;SDS011;3877;42.562;27.636;2022-12-19T01:57:45;24.53;;;11.70;;
7669;SDS011;3877;42.562;27.636;2022-12-19T02:00:12;23.33;;;11.67;;
7669;SDS011;3877;42.562;27.636;2022-12-19T02:02:40;24.03;;;11.03;;
7669;SDS011;3877;42.562;27.636;2022-12-19T02:05:09;21.63;;;11.43;;
7669;SDS011;3877;42.562;27.636;2022-12-19T02:07:37;23.47;;;11.67;;
7669;SDS011;3877;42.562;27.636;2022-12-19T02:10:04;19.93;;;11.07;;
7669;SDS011;3877;42.562;27.636;2022-12-19T02:12:32;28.47;;;13.73;;
7669;SDS011;3877;42.562;27.636;2022-12-19T02:14:59;24.30;;;12.60;;
7669;SDS011;3877;42.562;27.636;2022-12-19T02:17:28;24.17;;;12.23;;
7669;SDS011;3877;42.562;27.636;2022-12-19T02:20:02;22.47;;;11.27;;
7669;SDS011;3877;42.562;27.636;2022-12-19T02:22:33;26.10;;;13.47;;
7669;SDS011;3877;42.562;27.636;2022-12-19T02:25:18;21.77;;;11.37;;
7669;SDS011;3877;42.562;27.636;2022-12-19T02:27:57;25.30;;;13.17;;
7669;SDS011;3877;42.562;27.636;2022-12-19T02:30:36;30.93;;;13.57;;
7669;SDS011;3877;42.562;27.636;2022-12-19T02:33:09;27.37;;;13.80;;
7669;SDS011;3877;42.562;27.636;2022-12-19T02:35:39;27.70;;;14.40;;
7669;SDS011;3877;42.562;27.636;2022-12-19T02:38:10;29.53;;;14.63;;
7669;SDS011;3877;42.562;27.636;2022-12-19T02:40:39;29.20;;;14.20;;
7669;SDS011;3877;42.562;27.636;2022-12-19T02:43:07;28.30;;;15.17;;
7669;SDS011;3877;42.562;27.636;2022-12-19T02:45:37;28.17;;;14.33;;
7669;SDS011;3877;42.562;27.636;2022-12-19T02:48:05;32.93;;;15.40;;
7669;SDS011;3877;42.562;27.636;2022-12-19T02:50:38;26.03;;;14.20;;
7669;SDS011;3877;42.562;27.636;2022-12-19T02:53:05;25.63;;;11.80;;
7669;SDS011;3877;42.562;27.636;2022-12-19T02:55:33;24.70;;;12.73;;
7669;SDS011;3877;42.562;27.636;2022-12-19T03:00:46;30.67;;;13.17;;
7669;SDS011;3877;42.562;27.636;2022-12-19T03:03:17;31.70;;;15.10;;
7669;SDS011;3877;42.562;27.636;2022-12-19T03:05:49;35.50;;;15.97;;
7669;SDS011;3877;42.562;27.636;2022-12-19T03:08:20;33.83;;;15.00;;
7669;SDS011;3877;42.562;27.636;2022-12-19T03:10:51;34.60;;;15.53;;
7669;SDS011;3877;42.562;27.636;2022-12-19T03:13:20;30.43;;;14.90;;
7669;SDS011;3877;42.562;27.636;2022-12-19T03:15:49;30.80;;;14.83;;
7669;SDS011;3877;42.562;27.636;2022-12-19T03:18:17;32.53;;;16.03;;
7669;SDS011;3877;42.562;27.636;2022-12-19T03:20:45;29.60;;;14.07;;
7669;SDS011;3877;42.562;27.636;2022-12-19T03:23:13;30.03;;;14.10;;
7669;SDS011;3877;42.562;27.636;2022-12-19T03:25:40;26.83;;;13.77;;
7669;SDS011;3877;42.562;27.636;2022-12-19T03:28:09;31.63;;;15.00;;
7669;SDS011;3877;42.562;27.636;2022-12-19T03:30:38;32.70;;;14.53;;
7669;SDS011;3877;42.562;27.636;2022-12-19T03:33:07;28.27;;;14.60;;
7669;SDS011;3877;42.562;27.636;2022-12-19T03:35:35;43.70;;;17.40;;
7669;SDS011;3877;42.562;27.636;2022-12-19T03:38:03;32.37;;;14.80;;
7669;SDS011;3877;42.562;27.636;2022-12-19T03:40:31;39.60;;;16.77;;
7669;SDS011;3877;42.562;27.636;2022-12-19T03:43:00;31.40;;;14.43;;
7669;SDS011;3877;42.562;27.636;2022-12-19T03:45:42;38.20;;;17.23;;
7669;SDS011;3877;42.562;27.636;2022-12-19T03:48:12;37.83;;;16.57;;
7669;SDS011;3877;42.562;27.636;2022-12-19T03:50:41;43.07;;;19.37;;
7669;SDS011;3877;42.562;27.636;2022-12-19T03:53:10;40.00;;;17.10;;
7669;SDS011;3877;42.562;27.636;2022-12-19T03:55:41;37.83;;;18.57;;
7669;SDS011;3877;42.562;27.636;2022-12-19T03:58:11;37.87;;;18.40;;
7669;SDS011;3877;42.562;27.636;2022-12-19T04:00:39;39.63;;;18.33;;
7669;SDS011;3877;42.562;27.636;2022-12-19T04:03:07;48.37;;;20.03;;
7669;SDS011;3877;42.562;27.636;2022-12-19T04:05:36;43.53;;;21.13;;
7669;SDS011;3877;42.562;27.636;2022-12-19T04:08:04;53.60;;;21.40;;
7669;SDS011;3877;42.562;27.636;2022-12-19T04:10:33;37.10;;;17.07;;
7669;SDS011;3877;42.562;27.636;2022-12-19T04:13:01;37.27;;;16.47;;
7669;SDS011;3877;42.562;27.636;2022-12-19T04:15:32;38.67;;;19.97;;
7669;SDS011;3877;42.562;27.636;2022-12-19T04:17:59;43.20;;;22.00;;
7669;SDS011;3877;42.562;27.636;2022-12-19T04:20:30;46.53;;;20.77;;
7669;SDS011;3877;42.562;27.636;2022-12-19T04:23:01;43.90;;;21.03;;
7669;SDS011;3877;42.562;27.636;2022-12-19T04:25:30;46.33;;;21.50;;
7669;SDS011;3877;42.562;27.636;2022-12-19T04:27:59;44.30;;;22.43;;
7669;SDS011;3877;42.562;27.636;2022-12-19T04:30:27;42.97;;;20.17;;
7669;SDS011;3877;42.562;27.636;2022-12-19T04:32:55;48.17;;;18.07;;
7669;SDS011;3877;42.562;27.636;2022-12-19T04:35:22;36.77;;;16.90;;
7669;SDS011;3877;42.562;27.636;2022-12-19T04:37:49;49.47;;;21.47;;
7669;SDS011;3877;42.562;27.636;2022-12-19T04:40:18;47.00;;;21.50;;
7669;SDS011;3877;42.562;27.636;2022-12-19T04:42:45;50.47;;;23.10;;
7669;SDS011;3877;42.562;27.636;2022-12-19T04:45:12;45.87;;;22.07;;
7669;SDS011;3877;42.562;27.636;2022-12-19T04:47:38;51.50;;;23.50;;
7669;SDS011;3877;42.562;27.636;2022-12-19T04:50:06;51.40;;;22.40;;
7669;SDS011;3877;42.562;27.636;2022-12-19T04:52:32;50.97;;;23.77;;
7669;SDS011;3877;42.562;27.636;2022-12-19T04:54:59;52.33;;;25.63;;
7669;SDS011;3877;42.562;27.636;2022-12-19T04:57:29;46.53;;;22.43;;
7669;SDS011;3877;42.562;27.636;2022-12-19T04:59:56;47.97;;;20.80;;
7669;SDS011;3877;42.562;27.636;2022-12-19T05:02:23;46.00;;;20.83;;
7669;SDS011;3877;42.562;27.636;2022-12-19T05:04:50;51.57;;;23.83;;
7669;SDS011;3877;42.562;27.636;2022-12-19T05:07:18;44.70;;;22.23;;
7669;SDS011;3877;42.562;27.636;2022-12-19T05:09:45;45.07;;;21.27;;
7669;SDS011;3877;42.562;27.636;2022-12-19T05:12:13;46.47;;;23.00;;
7669;SDS011;3877;42.562;27.636;2022-12-19T05:14:41;46.53;;;22.43;;
7669;SDS011;3877;42.562;27.636;2022-12-19T05:17:08;48.17;;;23.27;;
7669;SDS011;3877;42.562;27.636;2022-12-19T05:19:35;39.63;;;19.33;;
7669;SDS011;3877;42.562;27.636;2022-12-19T05:22:02;39.20;;;20.43;;
7669;SDS011;3877;42.562;27.636;2022-12-19T05:24:29;36.00;;;17.03;;
7669;SDS011;3877;42.562;27.636;2022-12-19T05:26:56;30.90;;;15.77;;
7669;SDS011;3877;42.562;27.636;2022-12-19T05:29:23;33.40;;;17.47;;
7669;SDS011;3877;42.562;27.636;2022-12-19T05:31:51;43.23;;;21.47;;
7669;SDS011;3877;42.562;27.636;2022-12-19T05:34:18;39.77;;;18.87;;
7669;SDS011;3877;42.562;27.636;2022-12-19T05:36:45;38.30;;;17.50;;
7669;SDS011;3877;42.562;27.636;2022-12-19T05:39:12;39.00;;;18.20;;
7669;SDS011;3877;42.562;27.636;2022-12-19T05:41:39;34.50;;;16.10;;
7669;SDS011;3877;42.562;27.636;2022-12-19T05:44:06;39.83;;;18.30;;
7669;SDS011;3877;42.562;27.636;2022-12-19T05:46:33;34.73;;;17.03;;
7669;SDS011;3877;42.562;27.636;2022-12-19T05:49:01;35.07;;;17.53;;
7669;SDS011;3877;42.562;27.636;2022-12-19T05:51:29;38.00;;;16.33;;
7669;SDS011;3877;42.562;27.636;2022-12-19T05:53:55;33.10;;;16.97;;
7669;SDS011;3877;42.562;27.636;2022-12-19T05:56:22;33.87;;;14.93;;
7669;SDS011;3877;42.562;27.636;2022-12-19T05:58:49;31.10;;;14.40;;
7669;SDS011;3877;42.562;27.636;2022-12-19T06:01:17;32.17;;;15.43;;
7669;SDS011;3877;42.562;27.636;2022-12-19T06:03:44;32.83;;;15.20;;
7669;SDS011;3877;42.562;27.636;2022-12-19T06:06:13;21.20;;;11.77;;
7669;SDS011;3877;42.562;27.636;2022-12-19T06:08:41;26.43;;;14.00;;
7669;SDS011;3877;42.562;27.636;2022-12-19T06:11:08;25.10;;;13.30;;
7669;SDS011;3877;42.562;27.636;2022-12-19T06:13:35;23.60;;;13.33;;
7669;SDS011;3877;42.562;27.636;2022-12-19T06:16:03;24.47;;;12.40;;
7669;SDS011;3877;42.562;27.636;2022-12-19T06:18:30;26.23;;;12.07;;
7669;SDS011;3877;42.562;27.636;2022-12-19T06:20:58;22.37;;;10.53;;
7669;SDS011;3877;42.562;27.636;2022-12-19T06:23:27;22.97;;;11.50;;
7669;SDS011;3877;42.562;27.636;2022-12-19T06:25:54;18.00;;;9.93;;
7669;SDS011;3877;42.562;27.636;2022-12-19T06:28:21;19.63;;;9.73;;
7669;SDS011;3877;42.562;27.636;2022-12-19T06:30:48;25.33;;;11.80;;
7669;SDS011;3877;42.562;27.636;2022-12-19T06:33:15;26.50;;;11.47;;
7669;SDS011;3877;42.562;27.636;2022-12-19T06:35:42;23.73;;;10.53;;
7669;SDS011;3877;42.562;27.636;2022-12-19T06:38:09;19.30;;;10.20;;
7669;SDS011;3877;42.562;27.636;2022-12-19T06:40:40;18.07;;;9.00;;
7669;SDS011;3877;42.562;27.636;2022-12-19T06:43:24;16.10;;;7.87;;
7669;SDS011;3877;42.562;27.636;2022-12-19T06:45:51;21.33;;;10.27;;
7669;SDS011;3877;42.562;27.636;2022-12-19T06:48:18;16.67;;;7.93;;
7669;SDS011;3877;42.562;27.636;2022-12-19T06:50:45;17.67;;;8.20;;
7669;SDS011;3877;42.562;27.636;2022-12-19T06:53:12;16.33;;;8.53;;
7669;SDS011;3877;42.562;27.636;2022-12-19T06:55:39;18.80;;;9.27;;
7669;SDS011;3877;42.562;27.636;2022-12-19T06:58:07;16.90;;;8.97;;
7669;SDS011;3877;42.562;27.636;2022-12-19T07:00:35;19.13;;;8.67;;
7669;SDS011;3877;42.562;27.636;2022-12-19T07:03:02;19.07;;;8.33;;
7669;SDS011;3877;42.562;27.636;2022-12-19T07:05:30;19.80;;;8.90;;
7669;SDS011;3877;42.562;27.636;2022-12-19T07:07:57;15.23;;;7.73;;
7669;SDS011;3877;42.562;27.636;2022-12-19T07:10:24;16.87;;;7.67;;
7669;SDS011;3877;42.562;27.636;2022-12-19T07:12:51;17.30;;;8.60;;
7669;SDS011;3877;42.562;27.636;2022-12-19T07:15:19;17.83;;;8.03;;
7669;SDS011;3877;42.562;27.636;2022-12-19T07:17:46;14.13;;;7.77;;
7669;SDS011;3877;42.562;27.636;2022-12-19T07:20:14;19.23;;;8.13;;
7669;SDS011;3877;42.562;27.636;2022-12-19T07:22:41;13.27;;;5.73;;
7669;SDS011;3877;42.562;27.636;2022-12-19T07:25:09;19.00;;;8.67;;
7669;SDS011;3877;42.562;27.636;2022-12-19T07:27:35;13.13;;;7.43;;
7669;SDS011;3877;42.562;27.636;2022-12-19T07:30:03;19.83;;;9.20;;
7669;SDS011;3877;42.562;27.636;2022-12-19T07:32:32;16.93;;;8.33;;
7669;SDS011;3877;42.562;27.636;2022-12-19T07:34:59;19.23;;;8.40;;
7669;SDS011;3877;42.562;27.636;2022-12-19T07:37:26;17.00;;;8.77;;
7669;SDS011;3877;42.562;27.636;2022-12-19T07:39:53;13.20;;;7.00;;
7669;SDS011;3877;42.562;27.636;2022-12-19T07:42:20;15.67;;;7.97;;
7669;SDS011;3877;42.562;27.636;2022-12-19T07:44:47;18.30;;;8.03;;
7669;SDS011;3877;42.562;27.636;2022-12-19T07:47:14;15.07;;;7.30;;
7669;SDS011;3877;42.562;27.636;2022-12-19T07:49:43;15.47;;;8.60;;
7669;SDS011;3877;42.562;27.636;2022-12-19T07:52:09;16.27;;;7.33;;
7669;SDS011;3877;42.562;27.636;2022-12-19T07:54:36;14.03;;;6.37;;
7669;SDS011;3877;42.562;27.636;2022-12-19T07:57:03;15.77;;;7.40;;
7669;SDS011;3877;42.562;27.636;2022-12-19T07:59:30;19.60;;;9.07;;
7669;SDS011;3877;42.562;27.636;2022-12-19T08:01:58;21.30;;;10.10;;
7669;SDS011;3877;42.562;27.636;2022-12-19T08:04:25;18.33;;;8.97;;
7669;SDS011;3877;42.562;27.636;2022-12-19T08:06:53;19.57;;;9.80;;
7669;SDS011;3877;42.562;27.636;2022-12-19T08:09:20;21.30;;;9.37;;
7669;SDS011;3877;42.562;27.636;2022-12-19T08:11:47;19.23;;;9.93;;
7669;SDS011;3877;42.562;27.636;2022-12-19T08:14:13;16.03;;;8.73;;
7669;SDS011;3877;42.562;27.636;2022-12-19T08:16:40;20.13;;;9.03;;
7669;SDS011;3877;42.562;27.636;2022-12-19T08:19:08;11.77;;;6.87;;
7669;SDS011;3877;42.562;27.636;2022-12-19T08:21:34;21.27;;;9.13;;
7669;SDS011;3877;42.562;27.636;2022-12-19T08:24:03;15.93;;;8.10;;
7669;SDS011;3877;42.562;27.636;2022-12-19T08:26:30;20.03;;;8.50;;
7669;SDS011;3877;42.562;27.636;2022-12-19T08:28:57;18.53;;;8.47;;
7669;SDS011;3877;42.562;27.636;2022-12-19T08:31:24;14.77;;;7.13;;
7669;SDS011;3877;42.562;27.636;2022-12-19T08:33:52;12.43;;;7.40;;
7669;SDS011;3877;42.562;27.636;2022-12-19T08:36:19;13.00;;;7.07;;
7669;SDS011;3877;42.562;27.636;2022-12-19T08:38:47;17.30;;;8.10;;
7669;SDS011;3877;42.562;27.636;2022-12-19T08:41:16;13.13;;;6.97;;
7669;SDS011;3877;42.562;27.636;2022-12-19T08:43:46;19.20;;;8.77;;
7669;SDS011;3877;42.562;27.636;2022-12-19T08:46:14;16.77;;;8.67;;
7669;SDS011;3877;42.562;27.636;2022-12-19T08:48:42;12.90;;;5.67;;
7669;SDS011;3877;42.562;27.636;2022-12-19T08:51:09;9.57;;;5.90;;
7669;SDS011;3877;42.562;27.636;2022-12-19T08:53:37;13.63;;;6.60;;
7669;SDS011;3877;42.562;27.636;2022-12-19T08:56:05;14.67;;;7.07;;
7669;SDS011;3877;42.562;27.636;2022-12-19T08:58:33;13.60;;;6.43;;
7669;SDS011;3877;42.562;27.636;2022-12-19T09:01:01;17.07;;;7.53;;
7669;SDS011;3877;42.562;27.636;2022-12-19T09:03:29;11.33;;;5.93;;
7669;SDS011;3877;42.562;27.636;2022-12-19T09:05:57;16.63;;;6.63;;
7669;SDS011;3877;42.562;27.636;2022-12-19T09:08:24;15.37;;;5.50;;
7669;SDS011;3877;42.562;27.636;2022-12-19T09:10:55;12.13;;;5.93;;
7669;SDS011;3877;42.562;27.636;2022-12-19T09:13:23;11.83;;;6.40;;
7669;SDS011;3877;42.562;27.636;2022-12-19T09:15:58;13.33;;;6.90;;
7669;SDS011;3877;42.562;27.636;2022-12-19T09:18:26;14.03;;;6.67;;
7669;SDS011;3877;42.562;27.636;2022-12-19T09:20:53;12.73;;;6.30;;
7669;SDS011;3877;42.562;27.636;2022-12-19T09:23:20;14.83;;;7.00;;
7669;SDS011;3877;42.562;27.636;2022-12-19T09:25:47;11.73;;;5.97;;
7669;SDS011;3877;42.562;27.636;2022-12-19T09:28:14;14.10;;;6.80;;
7669;SDS011;3877;42.562;27.636;2022-12-19T09:30:41;13.00;;;5.83;;
7669;SDS011;3877;42.562;27.636;2022-12-19T09:33:09;13.17;;;6.93;;
7669;SDS011;3877;42.562;27.636;2022-12-19T09:35:36;13.10;;;6.63;;
7669;SDS011;3877;42.562;27.636;2022-12-19T09:38:03;12.30;;;6.77;;
7669;SDS011;3877;42.562;27.636;2022-12-19T09:40:32;13.77;;;6.70;;
7669;SDS011;3877;42.562;27.636;2022-12-19T09:43:02;12.97;;;6.73;;
7669;SDS011;3877;42.562;27.636;2022-12-19T09:45:41;10.23;;;6.43;;
7669;SDS011;3877;42.562;27.636;2022-12-19T09:48:12;14.07;;;6.53;;
7669;SDS011;3877;42.562;27.636;2022-12-19T09:50:42;13.70;;;7.33;;
7669;SDS011;3877;42.562;27.636;2022-12-19T09:53:13;9.70;;;5.50;;
7669;SDS011;3877;42.562;27.636;2022-12-19T09:55:41;15.80;;;7.80;;
7669;SDS011;3877;42.562;27.636;2022-12-19T09:58:10;17.53;;;7.33;;
7669;SDS011;3877;42.562;27.636;2022-12-19T10:00:39;15.37;;;6.23;;
7669;SDS011;3877;42.562;27.636;2022-12-19T10:03:11;15.43;;;7.07;;
7669;SDS011;3877;42.562;27.636;2022-12-19T10:05:42;12.50;;;6.37;;
7669;SDS011;3877;42.562;27.636;2022-12-19T10:08:12;13.17;;;6.93;;
7669;SDS011;3877;42.562;27.636;2022-12-19T10:10:43;13.83;;;6.47;;
7669;SDS011;3877;42.562;27.636;2022-12-19T10:13:13;19.10;;;7.10;;
7669;SDS011;3877;42.562;27.636;2022-12-19T10:15:42;10.33;;;5.67;;
7669;SDS011;3877;42.562;27.636;2022-12-19T10:18:19;12.13;;;6.70;;
7669;SDS011;3877;42.562;27.636;2022-12-19T10:20:51;9.00;;;5.73;;
7669;SDS011;3877;42.562;27.636;2022-12-19T10:23:28;15.03;;;7.13;;
7669;SDS011;3877;42.562;27.636;2022-12-19T10:26:02;18.27;;;8.37;;
7669;SDS011;3877;42.562;27.636;2022-12-19T10:28:45;11.57;;;5.83;;
7669;SDS011;3877;42.562;27.636;2022-12-19T10:31:15;13.23;;;7.17;;
7669;SDS011;3877;42.562;27.636;2022-12-19T10:33:43;15.23;;;7.40;;
7669;SDS011;3877;42.562;27.636;2022-12-19T10:36:13;12.57;;;6.57;;
7669;SDS011;3877;42.562;27.636;2022-12-19T10:38:42;11.87;;;5.87;;
7669;SDS011;3877;42.562;27.636;2022-12-19T10:41:14;15.23;;;7.87;;
7669;SDS011;3877;42.562;27.636;2022-12-19T10:43:45;12.47;;;6.77;;
7669;SDS011;3877;42.562;27.636;2022-12-19T10:46:15;13.80;;;7.67;;
7669;SDS011;3877;42.562;27.636;2022-12-19T10:48:43;10.93;;;5.83;;
7669;SDS011;3877;42.562;27.636;2022-12-19T10:51:10;15.57;;;7.03;;
7669;SDS011;3877;42.562;27.636;2022-12-19T10:53:39;10.37;;;6.20;;
7669;SDS011;3877;42.562;27.636;2022-12-19T10:56:17;15.20;;;7.23;;
7669;SDS011;3877;42.562;27.636;2022-12-19T10:58:47;13.03;;;7.03;;
7669;SDS011;3877;42.562;27.636;2022-12-19T11:01:18;18.43;;;6.67;;
7669;SDS011;3877;42.562;27.636;2022-12-19T11:03:49;12.97;;;6.47;;
7669;SDS011;3877;42.562;27.636;2022-12-19T11:09:19;13.30;;;6.10;;
7669;SDS011;3877;42.562;27.636;2022-12-19T11:11:46;11.30;;;5.73;;
7669;SDS011;3877;42.562;27.636;2022-12-19T11:14:18;13.03;;;6.73;;
7669;SDS011;3877;42.562;27.636;2022-12-19T11:16:46;14.33;;;7.60;;
7669;SDS011;3877;42.562;27.636;2022-12-19T11:19:18;14.37;;;6.67;;
7669;SDS011;3877;42.562;27.636;2022-12-19T11:21:46;14.90;;;7.27;;
7669;SDS011;3877;42.562;27.636;2022-12-19T11:24:21;10.67;;;5.40;;
7669;SDS011;3877;42.562;27.636;2022-12-19T11:26:50;13.87;;;6.67;;
7669;SDS011;3877;42.562;27.636;2022-12-19T11:29:20;15.67;;;6.60;;
7669;SDS011;3877;42.562;27.636;2022-12-19T11:31:52;19.10;;;7.00;;
7669;SDS011;3877;42.562;27.636;2022-12-19T11:34:20;14.97;;;7.40;;
7669;SDS011;3877;42.562;27.636;2022-12-19T11:36:49;16.37;;;8.17;;
7669;SDS011;3877;42.562;27.636;2022-12-19T11:39:18;15.70;;;7.00;;
7669;SDS011;3877;42.562;27.636;2022-12-19T11:41:47;23.57;;;8.53;;
7669;SDS011;3877;42.562;27.636;2022-12-19T11:44:19;21.10;;;7.40;;
7669;SDS011;3877;42.562;27.636;2022-12-19T11:46:49;14.37;;;7.50;;
7669;SDS011;3877;42.562;27.636;2022-12-19T11:49:21;17.93;;;8.77;;
7669;SDS011;3877;42.562;27.636;2022-12-19T11:52:01;16.50;;;7.20;;
7669;SDS011;3877;42.562;27.636;2022-12-19T11:54:29;15.43;;;7.27;;
7669;SDS011;3877;42.562;27.636;2022-12-19T11:56:58;21.17;;;8.03;;
7669;SDS011;3877;42.562;27.636;2022-12-19T11:59:28;12.23;;;7.40;;
7669;SDS011;3877;42.562;27.636;2022-12-19T12:02:03;15.10;;;8.10;;
7669;SDS011;3877;42.562;27.636;2022-12-19T12:04:41;12.70;;;6.77;;
7669;SDS011;3877;42.562;27.636;2022-12-19T12:07:11;13.63;;;7.37;;
7669;SDS011;3877;42.562;27.636;2022-12-19T12:09:38;12.90;;;7.40;;
7669;SDS011;3877;42.562;27.636;2022-12-19T12:12:12;13.20;;;6.83;;
7669;SDS011;3877;42.562;27.636;2022-12-19T12:14:46;18.57;;;7.60;;
7669;SDS011;3877;42.562;27.636;2022-12-19T12:17:23;14.80;;;7.77;;
7669;SDS011;3877;42.562;27.636;2022-12-19T12:19:55;14.97;;;8.20;;
7669;SDS011;3877;42.562;27.636;2022-12-19T12:22:34;15.67;;;7.60;;
7669;SDS011;3877;42.562;27.636;2022-12-19T12:25:05;19.07;;;9.20;;
7669;SDS011;3877;42.562;27.636;2022-12-19T12:27:39;16.40;;;7.80;;
7669;SDS011;3877;42.562;27.636;2022-12-19T12:30:11;16.43;;;8.03;;
7669;SDS011;3877;42.562;27.636;2022-12-19T12:32:45;15.37;;;7.97;;
7669;SDS011;3877;42.562;27.636;2022-12-19T12:35:21;15.60;;;8.53;;
7669;SDS011;3877;42.562;27.636;2022-12-19T12:37:51;15.93;;;8.33;;
7669;SDS011;3877;42.562;27.636;2022-12-19T12:40:26;19.73;;;9.20;;
7669;SDS011;3877;42.562;27.636;2022-12-19T12:43:00;17.40;;;9.00;;
7669;SDS011;3877;42.562;27.636;2022-12-19T12:45:34;19.23;;;9.10;;
7669;SDS011;3877;42.562;27.636;2022-12-19T12:48:01;12.40;;;7.87;;
7669;SDS011;3877;42.562;27.636;2022-12-19T12:50:28;19.23;;;8.83;;
7669;SDS011;3877;42.562;27.636;2022-12-19T12:52:57;22.77;;;10.10;;
7669;SDS011;3877;42.562;27.636;2022-12-19T12:55:25;19.90;;;9.60;;
7669;SDS011;3877;42.562;27.636;2022-12-19T12:57:53;20.87;;;10.07;;
7669;SDS011;3877;42.562;27.636;2022-12-19T13:00:21;18.50;;;9.30;;
7669;SDS011;3877;42.562;27.636;2022-12-19T13:02:52;18.83;;;9.67;;
7669;SDS011;3877;42.562;27.636;2022-12-19T13:05:24;19.37;;;9.67;;
7669;SDS011;3877;42.562;27.636;2022-12-19T13:07:55;24.07;;;10.40;;
7669;SDS011;3877;42.562;27.636;2022-12-19T13:10:22;18.67;;;8.80;;
7669;SDS011;3877;42.562;27.636;2022-12-19T13:13:00;24.93;;;10.97;;
7669;SDS011;3877;42.562;27.636;2022-12-19T13:15:30;20.97;;;9.50;;
7669;SDS011;3877;42.562;27.636;2022-12-19T13:18:11;19.63;;;9.23;;
7669;SDS011;3877;42.562;27.636;2022-12-19T13:20:40;15.03;;;8.13;;
7669;SDS011;3877;42.562;27.636;2022-12-19T13:23:19;20.30;;;9.33;;
7669;SDS011;3877;42.562;27.636;2022-12-19T13:25:47;17.97;;;9.17;;
7669;SDS011;3877;42.562;27.636;2022-12-19T13:28:34;15.67;;;8.90;;
7669;SDS011;3877;42.562;27.636;2022-12-19T13:31:12;18.30;;;9.77;;
7669;SDS011;3877;42.562;27.636;2022-12-19T13:33:45;21.47;;;9.87;;
7669;SDS011;3877;42.562;27.636;2022-12-19T13:38:58;21.40;;;9.50;;
7669;SDS011;3877;42.562;27.636;2022-12-19T13:41:26;23.30;;;9.60;;
7669;SDS011;3877;42.562;27.636;2022-12-19T13:44:10;19.80;;;9.43;;
7669;SDS011;3877;42.562;27.636;2022-12-19T13:46:38;15.47;;;9.10;;
7669;SDS011;3877;42.562;27.636;2022-12-19T13:49:09;20.37;;;9.37;;
7669;SDS011;3877;42.562;27.636;2022-12-19T13:51:44;18.30;;;9.50;;
7669;SDS011;3877;42.562;27.636;2022-12-19T13:54:18;18.83;;;9.77;;
7669;SDS011;3877;42.562;27.636;2022-12-19T13:56:45;17.90;;;9.33;;
7669;SDS011;3877;42.562;27.636;2022-12-19T13:59:12;23.47;;;9.77;;
7669;SDS011;3877;42.562;27.636;2022-12-19T14:01:39;18.07;;;9.77;;
7669;SDS011;3877;42.562;27.636;2022-12-19T14:04:07;22.77;;;12.67;;
7669;SDS011;3877;42.562;27.636;2022-12-19T14:06:40;17.27;;;9.63;;
7669;SDS011;3877;42.562;27.636;2022-12-19T14:09:08;21.33;;;10.20;;
7669;SDS011;3877;42.562;27.636;2022-12-19T14:11:44;17.23;;;9.17;;
7669;SDS011;3877;42.562;27.636;2022-12-19T14:14:13;19.43;;;9.87;;
7669;SDS011;3877;42.562;27.636;2022-12-19T14:17:04;21.13;;;9.30;;
7669;SDS011;3877;42.562;27.636;2022-12-19T14:19:36;17.90;;;9.70;;
7669;SDS011;3877;42.562;27.636;2022-12-19T14:22:10;14.00;;;7.73;;
7669;SDS011;3877;42.562;27.636;2022-12-19T14:24:37;21.70;;;8.47;;
7669;SDS011;3877;42.562;27.636;2022-12-19T14:27:04;18.20;;;9.10;;
7669;SDS011;3877;42.562;27.636;2022-12-19T14:29:34;16.60;;;8.80;;
7669;SDS011;3877;42.562;27.636;2022-12-19T14:32:02;17.30;;;9.50;;
7669;SDS011;3877;42.562;27.636;2022-12-19T14:34:30;17.60;;;9.70;;
7669;SDS011;3877;42.562;27.636;2022-12-19T14:36:58;17.87;;;9.37;;
7669;SDS011;3877;42.562;27.636;2022-12-19T14:39:27;20.27;;;9.10;;
7669;SDS011;3877;42.562;27.636;2022-12-19T14:41:59;17.87;;;10.30;;
7669;SDS011;3877;42.562;27.636;2022-12-19T14:44:49;15.97;;;7.97;;
7669;SDS011;3877;42.562;27.636;2022-12-19T14:47:20;20.30;;;9.27;;
7669;SDS011;3877;42.562;27.636;2022-12-19T14:49:48;21.17;;;9.93;;
7669;SDS011;3877;42.562;27.636;2022-12-19T14:57:55;12.60;;;8.07;;
7669;SDS011;3877;42.562;27.636;2022-12-19T15:00:23;14.17;;;8.20;;
7669;SDS011;3877;42.562;27.636;2022-12-19T15:02:51;14.90;;;8.53;;
7669;SDS011;3877;42.562;27.636;2022-12-19T15:05:18;17.77;;;8.43;;
7669;SDS011;3877;42.562;27.636;2022-12-19T15:07:46;15.10;;;8.33;;